createdAt,value
2023-02-22T07:41:59.790Z,7.50
2023-02-22T07:44:29.214Z,7.50
2023-02-22T07:46:55.941Z,7.60
2023-02-22T07:49:22.813Z,7.70
2023-02-22T07:51:49.570Z,7.80
2023-02-22T07:54:16.283Z,7.90
2023-02-22T07:56:49.366Z,8.00
2023-02-22T07:59:16.668Z,8.20
2023-02-22T08:01:43.430Z,8.20
2023-02-22T08:04:10.186Z,8.30
2023-02-22T08:06:36.935Z,8.50
2023-02-22T08:09:03.719Z,8.60
2023-02-22T08:11:30.458Z,8.70
2023-02-22T08:13:57.155Z,8.80
2023-02-22T08:16:24.275Z,8.80
2023-02-22T08:18:51.003Z,8.90
2023-02-22T08:21:18.167Z,9.10
2023-02-22T08:23:45.098Z,9.50
2023-02-22T08:26:15.651Z,9.60
2023-02-22T08:28:43.141Z,9.70
2023-02-22T08:31:09.904Z,9.70
2023-02-22T08:33:36.745Z,9.60
2023-02-22T08:36:03.838Z,9.70
2023-02-22T08:38:32.671Z,9.70
2023-02-22T08:40:59.701Z,9.80
2023-02-22T08:43:26.487Z,9.90
2023-02-22T08:45:55.076Z,10.00
2023-02-22T08:48:24.128Z,10.10
2023-02-22T08:50:50.972Z,10.30
2023-02-22T08:53:18.304Z,10.20
2023-02-22T08:55:45.690Z,10.30
2023-02-22T08:58:12.808Z,10.40
2023-02-22T09:00:41.143Z,10.50
2023-02-22T09:03:13.173Z,10.50
2023-02-22T09:05:40.744Z,10.50
2023-02-22T09:08:07.548Z,10.70
2023-02-22T09:10:35.708Z,10.70
2023-02-22T09:13:04.098Z,10.80
2023-02-22T09:15:32.017Z,11.00
2023-02-22T09:17:59.481Z,11.20
2023-02-22T09:20:27.423Z,11.70
2023-02-22T09:22:55.047Z,12.10
2023-02-22T09:25:22.555Z,12.30
2023-02-22T09:27:53.391Z,12.30
2023-02-22T09:30:27.098Z,12.40
2023-02-22T09:32:57.983Z,12.60
2023-02-22T09:35:27.567Z,13.00
2023-02-22T09:37:59.687Z,12.90
2023-02-22T09:40:30.477Z,12.70
2023-02-22T09:43:00.448Z,12.50
2023-02-22T09:46:03.715Z,12.70
2023-02-22T09:48:36.942Z,14.00
2023-02-22T09:51:15.288Z,14.90
2023-02-22T09:53:49.796Z,15.40
2023-02-22T09:56:19.955Z,15.70
2023-02-22T09:58:52.277Z,16.00
2023-02-22T10:01:30.036Z,16.50
2023-02-22T10:04:20.078Z,16.80
2023-02-22T10:07:10.398Z,17.10
2023-02-22T10:09:42.629Z,17.60
2023-02-22T10:12:09.592Z,17.80
2023-02-22T10:15:09.985Z,17.90
2023-02-22T10:17:57.370Z,18.20
2023-02-22T10:20:37.313Z,18.30
2023-02-22T10:23:26.403Z,18.10
2023-02-22T10:26:01.522Z,18.60
2023-02-22T10:28:40.013Z,19.30
2023-02-22T10:31:25.208Z,18.90
2023-02-22T10:34:02.310Z,19.10
2023-02-22T10:36:29.650Z,18.80
2023-02-22T10:39:07.804Z,18.60
2023-02-22T10:41:40.968Z,18.60
2023-02-22T10:44:08.432Z,18.80
2023-02-22T10:46:35.401Z,18.70
2023-02-22T10:49:07.416Z,18.60
2023-02-22T10:51:34.673Z,18.60
2023-02-22T10:54:14.066Z,18.70
2023-02-22T10:56:49.822Z,19.10
2023-02-22T10:59:35.658Z,18.90
2023-02-22T11:02:15.571Z,18.80
2023-02-22T11:04:51.561Z,18.80
2023-02-22T11:07:36.867Z,18.50
2023-02-22T11:10:09.523Z,18.40
2023-02-22T11:12:37.744Z,18.20
2023-02-22T11:15:17.126Z,18.10
2023-02-22T11:17:46.846Z,17.90
2023-02-22T11:20:25.560Z,17.80
2023-02-22T11:22:58.252Z,18.00
2023-02-22T11:25:30.283Z,17.90
2023-02-22T11:28:09.408Z,18.00
2023-02-22T11:30:39.283Z,18.10
2023-02-22T11:33:17.139Z,18.30
2023-02-22T11:35:58.268Z,18.40
2023-02-22T11:38:30.966Z,18.20
2023-02-22T11:41:30.288Z,17.90
2023-02-22T11:44:31.438Z,18.10
2023-02-22T11:47:07.163Z,18.30
2023-02-22T11:49:41.639Z,18.40
2023-02-22T11:52:26.148Z,18.40
2023-02-22T11:55:36.244Z,18.30
2023-02-22T11:58:33.673Z,18.80
2023-02-22T12:01:19.183Z,18.50
2023-02-22T12:04:17.118Z,18.40
2023-02-22T12:07:08.395Z,18.80
2023-02-22T12:09:41.676Z,18.40
2023-02-22T12:12:50.316Z,17.40
2023-02-22T12:15:36.844Z,16.60
2023-02-22T12:18:35.910Z,16.10
2023-02-22T12:21:17.076Z,15.70
2023-02-22T12:23:57.724Z,15.60
2023-02-22T12:26:30.568Z,15.50
2023-02-22T12:29:31.229Z,15.40
2023-02-22T12:32:07.870Z,15.20
2023-02-22T12:34:41.498Z,15.40
2023-02-22T12:37:29.108Z,15.50
2023-02-22T12:40:23.641Z,15.40
2023-02-22T12:43:00.068Z,15.40
2023-02-22T12:45:44.088Z,15.30
2023-02-22T12:48:46.534Z,15.20
2023-02-22T12:51:48.846Z,15.40
2023-02-22T12:54:51.451Z,15.70
2023-02-22T12:57:37.375Z,16.20
2023-02-22T13:00:18.443Z,16.70
2023-02-22T13:03:21.233Z,16.80
2023-02-22T13:06:43.790Z,16.60
2023-02-22T13:09:38.979Z,16.60
2023-02-22T13:12:27.901Z,16.70
2023-02-22T13:15:23.824Z,16.50
2023-02-22T13:18:28.968Z,16.40
2023-02-22T13:21:21.406Z,16.20
2023-02-22T13:24:30.755Z,16.30
2023-02-22T13:27:11.798Z,16.50
2023-02-22T13:29:48.023Z,16.20
2023-02-22T13:32:47.056Z,15.80
2023-02-22T13:35:31.741Z,15.80
2023-02-22T13:38:30.972Z,15.70
2023-02-22T13:41:06.354Z,15.70
2023-02-22T13:43:51.399Z,15.70
2023-02-22T13:47:16.443Z,15.60
2023-02-22T13:50:07.452Z,15.20
2023-02-22T13:52:39.198Z,14.90
2023-02-22T13:55:22.939Z,14.90
2023-02-22T13:57:59.051Z,14.80
2023-02-22T14:00:44.371Z,14.70
2023-02-22T14:03:14.145Z,14.50
2023-02-22T14:05:41.677Z,14.50
2023-02-22T14:08:17.726Z,14.50
2023-02-22T14:10:47.447Z,14.30
2023-02-22T14:13:26.709Z,14.10
2023-02-22T14:16:00.269Z,14.00
2023-02-22T14:18:40.556Z,13.90
2023-02-22T14:21:10.452Z,13.90
2023-02-22T14:23:45.806Z,13.90
2023-02-22T14:26:37.219Z,13.80
2023-02-22T14:29:10.478Z,13.70
2023-02-22T14:31:46.445Z,13.60
2023-02-22T14:34:20.100Z,13.50
2023-02-22T14:36:55.383Z,13.50
2023-02-22T14:39:32.810Z,13.40
2023-02-22T14:42:30.397Z,13.30
2023-02-22T14:45:14.743Z,13.20
2023-02-22T14:48:11.781Z,13.30
2023-02-22T14:50:54.113Z,13.30
2023-02-22T14:53:40.583Z,13.20
2023-02-22T14:56:30.322Z,13.20
2023-02-22T14:59:10.936Z,13.20
2023-02-22T15:02:02.194Z,13.20
2023-02-22T15:04:44.326Z,13.20
2023-02-22T15:07:35.653Z,13.10
2023-02-22T15:10:56.133Z,12.90
2023-02-22T15:13:36.089Z,12.90
2023-02-22T15:16:09.183Z,12.70
2023-02-22T15:18:49.909Z,12.60
2023-02-22T15:21:25.215Z,12.60
2023-02-22T15:23:59.643Z,12.50
2023-02-22T15:27:00.689Z,12.40
2023-02-22T15:29:44.488Z,12.40
2023-02-22T15:32:30.435Z,12.40
2023-02-22T15:35:13.328Z,12.30
2023-02-22T15:37:40.435Z,12.20
2023-02-22T15:40:14.632Z,12.10
2023-02-22T15:42:58.360Z,12.10
2023-02-22T15:45:26.279Z,12.00
2023-02-22T15:47:54.907Z,12.00
2023-02-22T15:50:32.297Z,11.90
2023-02-22T15:53:02.085Z,11.90
2023-02-22T15:55:34.109Z,11.70
2023-02-22T15:58:12.559Z,11.60
2023-02-22T16:00:42.530Z,11.50
2023-02-22T16:03:19.228Z,11.40
2023-02-22T16:05:55.537Z,11.30
2023-02-22T16:08:53.753Z,11.20
2023-02-22T16:11:32.509Z,11.10
2023-02-22T16:14:07.465Z,11.00
2023-02-22T16:16:41.626Z,10.80
2023-02-22T16:19:35.692Z,10.80
2023-02-22T16:22:05.161Z,10.70
2023-02-22T16:24:35.438Z,10.70
2023-02-22T16:27:10.997Z,10.60
2023-02-22T16:29:44.197Z,10.50
2023-02-22T16:32:15.437Z,10.40
2023-02-22T16:34:42.337Z,10.40
2023-02-22T16:37:29.711Z,10.30
2023-02-22T16:39:56.785Z,10.20
2023-02-22T16:42:31.832Z,10.10
2023-02-22T16:45:27.029Z,10.10
2023-02-22T16:48:03.657Z,10.10
2023-02-22T16:50:32.995Z,10.00
2023-02-22T16:53:14.330Z,10.00
2023-02-22T16:55:56.099Z,9.90
2023-02-22T16:58:43.913Z,9.80
2023-02-22T17:01:12.827Z,9.70
2023-02-22T17:03:39.613Z,9.60
2023-02-22T17:06:06.602Z,9.60
2023-02-22T17:08:33.292Z,9.60
2023-02-22T17:11:00.722Z,9.60
2023-02-22T17:13:29.212Z,9.40
2023-02-22T17:15:56.888Z,9.50
2023-02-22T17:18:25.211Z,9.40
2023-02-22T17:20:55.065Z,9.30
2023-02-22T17:23:23.237Z,9.20
2023-02-22T17:26:00.332Z,9.10
2023-02-22T17:28:27.428Z,9.10
2023-02-22T17:30:55.975Z,9.00
2023-02-22T17:33:27.464Z,9.00
2023-02-22T17:35:56.112Z,9.00
2023-02-22T17:38:23.303Z,8.90
2023-02-22T17:40:54.710Z,8.90
2023-02-22T17:43:22.414Z,8.90
2023-02-22T17:45:49.634Z,8.90
2023-02-22T17:48:17.897Z,8.90
2023-02-22T17:50:46.984Z,8.80
2023-02-22T17:53:14.162Z,8.80
2023-02-22T17:55:42.478Z,8.80
2023-02-22T17:58:14.549Z,8.80
2023-02-22T18:00:49.697Z,8.70
2023-02-22T18:03:21.774Z,8.70
2023-02-22T18:05:51.131Z,8.70
2023-02-22T18:08:18.417Z,8.70
2023-02-22T18:10:56.358Z,8.70
2023-02-22T18:13:25.296Z,8.60
2023-02-22T18:15:52.465Z,8.60
2023-02-22T18:18:19.790Z,8.60
2023-02-22T18:20:51.371Z,8.50
2023-02-22T18:23:22.286Z,8.50
2023-02-22T18:26:08.975Z,8.50
2023-02-22T18:28:37.856Z,8.50
2023-02-22T18:31:09.709Z,8.50
2023-02-22T18:33:36.591Z,8.40
2023-02-22T18:36:50.563Z,8.40
2023-02-22T18:39:48.801Z,8.30
2023-02-22T18:43:18.569Z,8.40
2023-02-22T18:46:03.710Z,8.30
